sensor_id;sensor_type;location;lat;lon;timestamp;pressure;altitude;pressure_sealevel;temperature;humidity
38718;BME280;24468;52.128;9.278;2023-05-10T00:01:55;99797.78;;;17.08;100.00
38718;BME280;24468;52.128;9.278;2023-05-10T00:04:21;99788.22;;;17.14;100.00
38718;BME280;24468;52.128;9.278;2023-05-10T00:06:47;99794.31;;;17.17;100.00
38718;BME280;24468;52.128;9.278;2023-05-10T00:09:12;99789.34;;;17.22;100.00
38718;BME280;24468;52.128;9.278;2023-05-10T00:11:38;99790.91;;;17.25;100.00
38718;BME280;24468;52.128;9.278;2023-05-10T00:14:04;99790.97;;;17.14;100.00
38718;BME280;24468;52.128;9.278;2023-05-10T00:16:30;99793.50;;;16.94;100.00
38718;BME280;24468;52.128;9.278;2023-05-10T00:18:55;99791.63;;;17.06;100.00
38718;BME280;24468;52.128;9.278;2023-05-10T00:21:21;99794.97;;;16.64;100.00
38718;BME280;24468;52.128;9.278;2023-05-10T00:23:46;99790.44;;;16.65;100.00
38718;BME280;24468;52.128;9.278;2023-05-10T00:26:11;99802.19;;;16.65;100.00
38718;BME280;24468;52.128;9.278;2023-05-10T00:28:37;99805.75;;;16.66;100.00
38718;BME280;24468;52.128;9.278;2023-05-10T00:31:03;99785.94;;;16.75;100.00
38718;BME280;24468;52.128;9.278;2023-05-10T00:33:28;99786.47;;;16.80;100.00
38718;BME280;24468;52.128;9.278;2023-05-10T00:35:54;99788.91;;;16.83;100.00
38718;BME280;24468;52.128;9.278;2023-05-10T00:38:19;99785.72;;;16.89;100.00
38718;BME280;24468;52.128;9.278;2023-05-10T00:40:45;99786.94;;;16.74;100.00
38718;BME280;24468;52.128;9.278;2023-05-10T00:43:10;99793.16;;;16.65;100.00
38718;BME280;24468;52.128;9.278;2023-05-10T00:45:37;99799.47;;;16.65;100.00
38718;BME280;24468;52.128;9.278;2023-05-10T00:48:03;99787.81;;;16.52;100.00
38718;BME280;24468;52.128;9.278;2023-05-10T00:50:30;99782.97;;;16.56;100.00
38718;BME280;24468;52.128;9.278;2023-05-10T00:52:59;99784.00;;;16.43;100.00
38718;BME280;24468;52.128;9.278;2023-05-10T00:55:25;99782.88;;;16.46;100.00
38718;BME280;24468;52.128;9.278;2023-05-10T00:57:53;99787.94;;;16.39;100.00
38718;BME280;24468;52.128;9.278;2023-05-10T01:00:19;99788.34;;;16.35;100.00
38718;BME280;24468;52.128;9.278;2023-05-10T01:02:45;99777.91;;;16.40;100.00
38718;BME280;24468;52.128;9.278;2023-05-10T01:05:11;99772.97;;;16.45;100.00
38718;BME280;24468;52.128;9.278;2023-05-10T01:07:37;99782.03;;;16.45;100.00
38718;BME280;24468;52.128;9.278;2023-05-10T01:10:03;99778.31;;;16.35;100.00
38718;BME280;24468;52.128;9.278;2023-05-10T01:12:29;99781.75;;;16.26;100.00
38718;BME280;24468;52.128;9.278;2023-05-10T01:14:55;99779.03;;;16.26;100.00
38718;BME280;24468;52.128;9.278;2023-05-10T01:17:22;99782.13;;;16.33;100.00
38718;BME280;24468;52.128;9.278;2023-05-10T01:19:48;99783.75;;;16.35;100.00
38718;BME280;24468;52.128;9.278;2023-05-10T01:33:30;99792.03;;;16.22;100.00
38718;BME280;24468;52.128;9.278;2023-05-10T01:38:47;99792.75;;;15.67;100.00
38718;BME280;24468;52.128;9.278;2023-05-10T01:41:40;99788.41;;;15.88;100.00
38718;BME280;24468;52.128;9.278;2023-05-10T01:44:14;99786.88;;;15.84;100.00
38718;BME280;24468;52.128;9.278;2023-05-10T01:46:42;99778.13;;;15.92;100.00
38718;BME280;24468;52.128;9.278;2023-05-10T01:49:10;99786.41;;;15.90;100.00
38718;BME280;24468;52.128;9.278;2023-05-10T01:51:50;99780.75;;;15.93;100.00
38718;BME280;24468;52.128;9.278;2023-05-10T01:54:20;99779.13;;;15.91;100.00
38718;BME280;24468;52.128;9.278;2023-05-10T01:56:52;99770.31;;;15.87;100.00
38718;BME280;24468;52.128;9.278;2023-05-10T01:59:21;99774.06;;;15.97;100.00
38718;BME280;24468;52.128;9.278;2023-05-10T02:01:48;99770.59;;;16.07;100.00
38718;BME280;24468;52.128;9.278;2023-05-10T02:04:16;99774.22;;;16.07;100.00
38718;BME280;24468;52.128;9.278;2023-05-10T02:06:43;99775.69;;;16.00;100.00
38718;BME280;24468;52.128;9.278;2023-05-10T02:09:10;99770.72;;;15.83;100.00
38718;BME280;24468;52.128;9.278;2023-05-10T02:11:38;99771.06;;;15.89;100.00
38718;BME280;24468;52.128;9.278;2023-05-10T02:14:07;99766.25;;;15.82;100.00
38718;BME280;24468;52.128;9.278;2023-05-10T02:16:35;99771.66;;;15.70;100.00
38718;BME280;24468;52.128;9.278;2023-05-10T02:19:02;99775.63;;;15.42;100.00
38718;BME280;24468;52.128;9.278;2023-05-10T02:21:29;99772.00;;;15.30;100.00
38718;BME280;24468;52.128;9.278;2023-05-10T02:23:57;99767.72;;;15.39;100.00
38718;BME280;24468;52.128;9.278;2023-05-10T02:26:24;99769.75;;;15.35;100.00
38718;BME280;24468;52.128;9.278;2023-05-10T02:28:53;99764.72;;;15.31;100.00
38718;BME280;24468;52.128;9.278;2023-05-10T02:31:19;99767.81;;;15.13;100.00
38718;BME280;24468;52.128;9.278;2023-05-10T02:33:45;99764.34;;;15.35;100.00
38718;BME280;24468;52.128;9.278;2023-05-10T02:36:12;99762.66;;;15.46;100.00
38718;BME280;24468;52.128;9.278;2023-05-10T02:38:39;99763.41;;;15.48;100.00
38718;BME280;24468;52.128;9.278;2023-05-10T02:41:05;99764.25;;;15.48;100.00
38718;BME280;24468;52.128;9.278;2023-05-10T02:43:33;99764.41;;;15.47;100.00
38718;BME280;24468;52.128;9.278;2023-05-10T02:46:00;99772.66;;;15.45;100.00
38718;BME280;24468;52.128;9.278;2023-05-10T02:48:26;99770.72;;;15.59;100.00
38718;BME280;24468;52.128;9.278;2023-05-10T02:50:56;99772.34;;;15.61;100.00
38718;BME280;24468;52.128;9.278;2023-05-10T02:53:35;99765.16;;;15.60;100.00
38718;BME280;24468;52.128;9.278;2023-05-10T02:56:05;99776.00;;;15.49;100.00
38718;BME280;24468;52.128;9.278;2023-05-10T02:58:36;99772.97;;;15.65;100.00
38718;BME280;24468;52.128;9.278;2023-05-10T03:01:02;99761.72;;;15.58;100.00
38718;BME280;24468;52.128;9.278;2023-05-10T03:03:28;99770.31;;;15.52;100.00
38718;BME280;24468;52.128;9.278;2023-05-10T03:05:53;99773.41;;;15.47;100.00
38718;BME280;24468;52.128;9.278;2023-05-10T03:08:22;99777.75;;;15.50;100.00
38718;BME280;24468;52.128;9.278;2023-05-10T03:13:35;99790.44;;;15.49;100.00
38718;BME280;24468;52.128;9.278;2023-05-10T03:16:09;99775.38;;;15.45;100.00
38718;BME280;24468;52.128;9.278;2023-05-10T03:18:50;99787.84;;;15.12;100.00
38718;BME280;24468;52.128;9.278;2023-05-10T03:21:22;99790.19;;;14.93;100.00
38718;BME280;24468;52.128;9.278;2023-05-10T03:24:06;99788.59;;;14.54;100.00
38718;BME280;24468;52.128;9.278;2023-05-10T03:26:33;99777.13;;;14.61;100.00
38718;BME280;24468;52.128;9.278;2023-05-10T03:29:00;99781.34;;;14.78;100.00
38718;BME280;24468;52.128;9.278;2023-05-10T03:31:26;99786.09;;;14.87;100.00
38718;BME280;24468;52.128;9.278;2023-05-10T03:33:52;99786.09;;;14.87;100.00
38718;BME280;24468;52.128;9.278;2023-05-10T03:36:19;99774.53;;;14.97;100.00
38718;BME280;24468;52.128;9.278;2023-05-10T03:38:44;99778.53;;;15.04;100.00
38718;BME280;24468;52.128;9.278;2023-05-10T03:41:10;99785.53;;;14.95;100.00
38718;BME280;24468;52.128;9.278;2023-05-10T03:43:35;99782.88;;;15.06;100.00
38718;BME280;24468;52.128;9.278;2023-05-10T03:46:03;99776.28;;;14.98;100.00
38718;BME280;24468;52.128;9.278;2023-05-10T03:48:29;99782.69;;;14.73;100.00
38718;BME280;24468;52.128;9.278;2023-05-10T03:50:54;99780.75;;;14.86;100.00
38718;BME280;24468;52.128;9.278;2023-05-10T03:53:20;99787.22;;;14.72;100.00
38718;BME280;24468;52.128;9.278;2023-05-10T03:55:45;99783.59;;;14.84;100.00
38718;BME280;24468;52.128;9.278;2023-05-10T03:58:11;99789.19;;;14.70;100.00
38718;BME280;24468;52.128;9.278;2023-05-10T04:00:37;99789.50;;;14.78;100.00
38718;BME280;24468;52.128;9.278;2023-05-10T04:03:12;99785.16;;;14.76;100.00
38718;BME280;24468;52.128;9.278;2023-05-10T04:05:37;99786.03;;;14.76;100.00
38718;BME280;24468;52.128;9.278;2023-05-10T04:08:03;99783.31;;;14.51;100.00
38718;BME280;24468;52.128;9.278;2023-05-10T04:10:29;99785.88;;;14.54;100.00
38718;BME280;24468;52.128;9.278;2023-05-10T04:12:56;99802.22;;;14.65;100.00
38718;BME280;24468;52.128;9.278;2023-05-10T04:15:23;99810.47;;;14.63;100.00
38718;BME280;24468;52.128;9.278;2023-05-10T04:17:48;99824.69;;;14.41;100.00
38718;BME280;24468;52.128;9.278;2023-05-10T04:20:14;99818.53;;;14.01;100.00
38718;BME280;24468;52.128;9.278;2023-05-10T04:22:40;99827.94;;;13.95;100.00
38718;BME280;24468;52.128;9.278;2023-05-10T04:25:06;99817.44;;;14.04;100.00
38718;BME280;24468;52.128;9.278;2023-05-10T04:27:32;99818.94;;;14.33;100.00
38718;BME280;24468;52.128;9.278;2023-05-10T04:29:58;99822.31;;;14.62;100.00
38718;BME280;24468;52.128;9.278;2023-05-10T04:32:23;99821.25;;;14.65;100.00
38718;BME280;24468;52.128;9.278;2023-05-10T04:34:49;99829.59;;;14.49;100.00
38718;BME280;24468;52.128;9.278;2023-05-10T04:37:16;99830.69;;;14.21;100.00
38718;BME280;24468;52.128;9.278;2023-05-10T04:39:42;99825.25;;;13.83;100.00
38718;BME280;24468;52.128;9.278;2023-05-10T04:42:08;99827.50;;;13.76;100.00
38718;BME280;24468;52.128;9.278;2023-05-10T04:44:33;99837.53;;;14.14;100.00
38718;BME280;24468;52.128;9.278;2023-05-10T04:46:59;99835.47;;;14.30;100.00
38718;BME280;24468;52.128;9.278;2023-05-10T04:49:24;99838.03;;;14.44;100.00
38718;BME280;24468;52.128;9.278;2023-05-10T04:51:50;99834.25;;;14.47;100.00
38718;BME280;24468;52.128;9.278;2023-05-10T04:54:15;99845.44;;;14.30;100.00
38718;BME280;24468;52.128;9.278;2023-05-10T04:56:41;99840.75;;;14.06;100.00
38718;BME280;24468;52.128;9.278;2023-05-10T04:59:06;99845.56;;;14.15;100.00
38718;BME280;24468;52.128;9.278;2023-05-10T05:01:32;99852.06;;;14.38;100.00
38718;BME280;24468;52.128;9.278;2023-05-10T05:03:58;99848.81;;;14.46;100.00
38718;BME280;24468;52.128;9.278;2023-05-10T05:06:24;99852.16;;;14.37;100.00
38718;BME280;24468;52.128;9.278;2023-05-10T05:08:50;99859.09;;;14.28;100.00
38718;BME280;24468;52.128;9.278;2023-05-10T05:11:17;99866.94;;;14.45;100.00
38718;BME280;24468;52.128;9.278;2023-05-10T05:13:43;99865.44;;;14.54;100.00
38718;BME280;24468;52.128;9.278;2023-05-10T05:16:08;99860.88;;;14.55;100.00
38718;BME280;24468;52.128;9.278;2023-05-10T05:18:34;99861.50;;;14.45;100.00
38718;BME280;24468;52.128;9.278;2023-05-10T05:21:00;99873.13;;;14.60;100.00
38718;BME280;24468;52.128;9.278;2023-05-10T05:23:25;99863.00;;;14.75;100.00
38718;BME280;24468;52.128;9.278;2023-05-10T05:25:52;99866.41;;;14.53;100.00
38718;BME280;24468;52.128;9.278;2023-05-10T05:28:19;99872.38;;;14.58;100.00
38718;BME280;24468;52.128;9.278;2023-05-10T05:30:45;99871.50;;;14.71;100.00
38718;BME280;24468;52.128;9.278;2023-05-10T05:33:13;99866.41;;;14.53;100.00
38718;BME280;24468;52.128;9.278;2023-05-10T05:35:38;99875.00;;;14.73;100.00
38718;BME280;24468;52.128;9.278;2023-05-10T05:38:04;99875.09;;;14.71;100.00
38718;BME280;24468;52.128;9.278;2023-05-10T05:40:29;99878.22;;;14.78;100.00
38718;BME280;24468;52.128;9.278;2023-05-10T05:42:55;99875.00;;;14.73;100.00
38718;BME280;24468;52.128;9.278;2023-05-10T05:45:21;99871.47;;;14.83;100.00
38718;BME280;24468;52.128;9.278;2023-05-10T05:47:46;99878.53;;;14.86;100.00
38718;BME280;24468;52.128;9.278;2023-05-10T05:50:12;99875.38;;;14.92;100.00
38718;BME280;24468;52.128;9.278;2023-05-10T05:52:37;99879.19;;;14.89;100.00
38718;BME280;24468;52.128;9.278;2023-05-10T05:55:03;99876.00;;;14.96;100.00
38718;BME280;24468;52.128;9.278;2023-05-10T05:57:29;99882.09;;;14.99;100.00
38718;BME280;24468;52.128;9.278;2023-05-10T05:59:55;99882.31;;;14.96;100.00
38718;BME280;24468;52.128;9.278;2023-05-10T06:02:20;99880.31;;;15.11;100.00
38718;BME280;24468;52.128;9.278;2023-05-10T06:04:46;99886.50;;;15.13;100.00
38718;BME280;24468;52.128;9.278;2023-05-10T06:07:11;99887.72;;;15.09;100.00
38718;BME280;24468;52.128;9.278;2023-05-10T06:09:37;99900.94;;;15.13;100.00
38718;BME280;24468;52.128;9.278;2023-05-10T06:12:03;99900.94;;;15.13;100.00
38718;BME280;24468;52.128;9.278;2023-05-10T06:14:28;99912.09;;;14.98;100.00
38718;BME280;24468;52.128;9.278;2023-05-10T06:16:54;99913.09;;;14.71;100.00
38718;BME280;24468;52.128;9.278;2023-05-10T06:19:19;99917.88;;;14.67;100.00
38718;BME280;24468;52.128;9.278;2023-05-10T06:21:45;99923.59;;;14.37;100.00
38718;BME280;24468;52.128;9.278;2023-05-10T06:24:10;99921.88;;;14.49;100.00
38718;BME280;24468;52.128;9.278;2023-05-10T06:26:36;99920.28;;;14.59;100.00
38718;BME280;24468;52.128;9.278;2023-05-10T06:29:01;99933.16;;;14.43;100.00
38718;BME280;24468;52.128;9.278;2023-05-10T06:31:27;99938.91;;;14.51;100.00
38718;BME280;24468;52.128;9.278;2023-05-10T06:33:53;99940.56;;;14.66;100.00
38718;BME280;24468;52.128;9.278;2023-05-10T06:36:18;99947.31;;;14.86;100.00
38718;BME280;24468;52.128;9.278;2023-05-10T06:38:44;99955.56;;;14.85;100.00
38718;BME280;24468;52.128;9.278;2023-05-10T06:41:09;99949.38;;;14.57;100.00
38718;BME280;24468;52.128;9.278;2023-05-10T06:43:35;99961.69;;;14.36;100.00
38718;BME280;24468;52.128;9.278;2023-05-10T06:46:02;99970.09;;;14.58;100.00
38718;BME280;24468;52.128;9.278;2023-05-10T06:48:27;99952.28;;;14.67;100.00
38718;BME280;24468;52.128;9.278;2023-05-10T06:50:53;99968.50;;;14.29;100.00
38718;BME280;24468;52.128;9.278;2023-05-10T06:53:19;99970.56;;;14.65;100.00
38718;BME280;24468;52.128;9.278;2023-05-10T06:55:44;99982.28;;;15.04;100.00
38718;BME280;24468;52.128;9.278;2023-05-10T06:58:10;99976.84;;;14.65;100.00
38718;BME280;24468;52.128;9.278;2023-05-10T07:00:35;99981.41;;;14.90;100.00
38718;BME280;24468;52.128;9.278;2023-05-10T07:03:05;99979.22;;;14.96;100.00
38718;BME280;24468;52.128;9.278;2023-05-10T07:05:31;99980.63;;;15.01;100.00
38718;BME280;24468;52.128;9.278;2023-05-10T07:07:57;99975.66;;;15.45;100.00
38718;BME280;24468;52.128;9.278;2023-05-10T07:10:22;99984.47;;;15.48;100.00
38718;BME280;24468;52.128;9.278;2023-05-10T07:12:48;99980.16;;;15.33;100.00
38718;BME280;24468;52.128;9.278;2023-05-10T07:15:13;99990.16;;;15.32;100.00
38718;BME280;24468;52.128;9.278;2023-05-10T07:17:39;99988.53;;;15.67;100.00
38718;BME280;24468;52.128;9.278;2023-05-10T07:20:05;99995.72;;;15.05;100.00
38718;BME280;24468;52.128;9.278;2023-05-10T07:22:31;99994.72;;;15.19;100.00
38718;BME280;24468;52.128;9.278;2023-05-10T07:24:56;100005.63;;;14.81;100.00
38718;BME280;24468;52.128;9.278;2023-05-10T07:27:22;100011.69;;;14.97;100.00
38718;BME280;24468;52.128;9.278;2023-05-10T07:29:47;100009.00;;;15.10;100.00
38718;BME280;24468;52.128;9.278;2023-05-10T07:32:13;100016.78;;;15.40;100.00
38718;BME280;24468;52.128;9.278;2023-05-10T07:34:39;100020.25;;;15.29;100.00
38718;BME280;24468;52.128;9.278;2023-05-10T07:37:04;100020.66;;;15.49;100.00
38718;BME280;24468;52.128;9.278;2023-05-10T07:39:31;100023.53;;;15.22;100.00
38718;BME280;24468;52.128;9.278;2023-05-10T07:41:56;100026.06;;;14.99;100.00
38718;BME280;24468;52.128;9.278;2023-05-10T07:44:22;100027.25;;;15.21;100.00
38718;BME280;24468;52.128;9.278;2023-05-10T07:46:48;100030.81;;;15.21;100.00
38718;BME280;24468;52.128;9.278;2023-05-10T07:49:14;100034.97;;;14.88;100.00
38718;BME280;24468;52.128;9.278;2023-05-10T07:51:39;100039.41;;;15.15;100.00
38718;BME280;24468;52.128;9.278;2023-05-10T07:54:05;100055.16;;;14.97;100.00
38718;BME280;24468;52.128;9.278;2023-05-10T07:56:32;100057.22;;;14.94;100.00
38718;BME280;24468;52.128;9.278;2023-05-10T07:59:02;100060.47;;;14.86;100.00
38718;BME280;24468;52.128;9.278;2023-05-10T08:01:34;100054.97;;;15.26;100.00
38718;BME280;24468;52.128;9.278;2023-05-10T08:04:00;100053.56;;;15.33;100.00
38718;BME280;24468;52.128;9.278;2023-05-10T08:06:26;100052.19;;;15.64;100.00
38718;BME280;24468;52.128;9.278;2023-05-10T08:08:55;100051.94;;;15.67;100.00
38718;BME280;24468;52.128;9.278;2023-05-10T08:11:21;100055.78;;;15.77;100.00
38718;BME280;24468;52.128;9.278;2023-05-10T08:13:48;100054.91;;;15.64;100.00
38718;BME280;24468;52.128;9.278;2023-05-10T08:16:14;100056.59;;;15.91;100.00
38718;BME280;24468;52.128;9.278;2023-05-10T08:18:40;100061.56;;;16.45;100.00
38718;BME280;24468;52.128;9.278;2023-05-10T08:21:05;100066.97;;;15.73;100.00
38718;BME280;24468;52.128;9.278;2023-05-10T08:23:31;100067.09;;;16.08;100.00
38718;BME280;24468;52.128;9.278;2023-05-10T08:25:57;100065.41;;;16.18;100.00
38718;BME280;24468;52.128;9.278;2023-05-10T08:28:22;100067.19;;;16.31;100.00
38718;BME280;24468;52.128;9.278;2023-05-10T08:30:49;100066.78;;;16.48;100.00
38718;BME280;24468;52.128;9.278;2023-05-10T08:33:15;100067.53;;;16.26;100.00
38718;BME280;24468;52.128;9.278;2023-05-10T08:35:41;100071.09;;;16.75;100.00
38718;BME280;24468;52.128;9.278;2023-05-10T08:38:06;100066.44;;;16.77;100.00
38718;BME280;24468;52.128;9.278;2023-05-10T08:40:32;100070.25;;;16.50;100.00
38718;BME280;24468;52.128;9.278;2023-05-10T08:43:06;100070.63;;;16.45;100.00
38718;BME280;24468;52.128;9.278;2023-05-10T08:45:38;100062.88;;;16.87;100.00
38718;BME280;24468;52.128;9.278;2023-05-10T08:48:10;100079.38;;;16.14;100.00
38718;BME280;24468;52.128;9.278;2023-05-10T08:50:39;100078.84;;;16.33;100.00
38718;BME280;24468;52.128;9.278;2023-05-10T08:53:15;100082.44;;;16.33;100.00
38718;BME280;24468;52.128;9.278;2023-05-10T08:55:41;100092.03;;;16.26;100.00
38718;BME280;24468;52.128;9.278;2023-05-10T08:58:09;100085.06;;;17.05;100.00
38718;BME280;24468;52.128;9.278;2023-05-10T09:00:35;100084.13;;;17.18;100.00
38718;BME280;24468;52.128;9.278;2023-05-10T09:03:04;100089.31;;;17.32;100.00
38718;BME280;24468;52.128;9.278;2023-05-10T09:05:29;100088.28;;;17.10;100.00
38718;BME280;24468;52.128;9.278;2023-05-10T09:07:55;100090.63;;;16.93;100.00
38718;BME280;24468;52.128;9.278;2023-05-10T09:10:21;100097.44;;;16.98;100.00
38718;BME280;24468;52.128;9.278;2023-05-10T09:12:48;100099.88;;;17.48;100.00
38718;BME280;24468;52.128;9.278;2023-05-10T09:15:15;100097.16;;;17.48;100.00
38718;BME280;24468;52.128;9.278;2023-05-10T09:17:42;100097.75;;;17.74;100.00
38718;BME280;24468;52.128;9.278;2023-05-10T09:20:09;100097.50;;;17.32;100.00
38718;BME280;24468;52.128;9.278;2023-05-10T09:22:35;100096.91;;;17.40;100.00
38718;BME280;24468;52.128;9.278;2023-05-10T09:25:15;100102.34;;;17.62;100.00
38718;BME280;24468;52.128;9.278;2023-05-10T09:27:44;100105.09;;;17.62;100.00
38718;BME280;24468;52.128;9.278;2023-05-10T09:30:15;100102.34;;;17.96;100.00
38718;BME280;24468;52.128;9.278;2023-05-10T09:32:46;100114.22;;;17.39;100.00
38718;BME280;24468;52.128;9.278;2023-05-10T09:35:17;100105.50;;;17.80;100.00
38718;BME280;24468;52.128;9.278;2023-05-10T09:37:45;100112.38;;;18.29;100.00
38718;BME280;24468;52.128;9.278;2023-05-10T09:40:18;100111.09;;;18.33;100.00
38718;BME280;24468;52.128;9.278;2023-05-10T09:45:16;100120.41;;;18.31;100.00
38718;BME280;24468;52.128;9.278;2023-05-10T09:47:42;100120.03;;;18.35;100.00
38718;BME280;24468;52.128;9.278;2023-05-10T09:50:08;100123.06;;;18.21;100.00
38718;BME280;24468;52.128;9.278;2023-05-10T09:52:55;100123.81;;;18.12;100.00
38718;BME280;24468;52.128;9.278;2023-05-10T09:55:26;100117.69;;;18.31;100.00
38718;BME280;24468;52.128;9.278;2023-05-10T09:58:02;100118.63;;;17.75;100.00
38718;BME280;24468;52.128;9.278;2023-05-10T10:00:44;100120.38;;;18.42;100.00
38718;BME280;24468;52.128;9.278;2023-05-10T10:03:19;100127.66;;;17.75;100.00
38718;BME280;24468;52.128;9.278;2023-05-10T10:05:46;100126.88;;;18.62;100.00
38718;BME280;24468;52.128;9.278;2023-05-10T10:08:13;100120.19;;;19.19;100.00
38718;BME280;24468;52.128;9.278;2023-05-10T10:10:40;100117.44;;;19.40;100.00
38718;BME280;24468;52.128;9.278;2023-05-10T10:13:07;100118.59;;;19.38;100.00
38718;BME280;24468;52.128;9.278;2023-05-10T10:15:36;100111.47;;;19.77;100.00
38718;BME280;24468;52.128;9.278;2023-05-10T10:18:02;100107.47;;;19.81;100.00
38718;BME280;24468;52.128;9.278;2023-05-10T10:20:29;100117.50;;;19.50;100.00
38718;BME280;24468;52.128;9.278;2023-05-10T10:22:54;100112.28;;;19.68;100.00
38718;BME280;24468;52.128;9.278;2023-05-10T10:25:21;100111.78;;;19.53;100.00
38718;BME280;24468;52.128;9.278;2023-05-10T10:30:31;100111.47;;;19.04;100.00
38718;BME280;24468;52.128;9.278;2023-05-10T10:36:07;100114.41;;;19.13;100.00
38718;BME280;24468;52.128;9.278;2023-05-10T10:47:22;100126.88;;;18.73;100.00
38718;BME280;24468;52.128;9.278;2023-05-10T10:50:07;100142.41;;;18.07;100.00
38718;BME280;24468;52.128;9.278;2023-05-10T10:52:34;100139.97;;;17.92;100.00
38718;BME280;24468;52.128;9.278;2023-05-10T10:55:09;100143.81;;;17.90;100.00
38718;BME280;24468;52.128;9.278;2023-05-10T10:57:51;100136.63;;;18.00;100.00
38718;BME280;24468;52.128;9.278;2023-05-10T11:00:31;100143.06;;;17.07;100.00
38718;BME280;24468;52.128;9.278;2023-05-10T11:03:09;100138.38;;;17.21;100.00
38718;BME280;24468;52.128;9.278;2023-05-10T11:05:58;100139.06;;;17.58;100.00
38718;BME280;24468;52.128;9.278;2023-05-10T11:08:29;100133.91;;;17.89;100.00
38718;BME280;24468;52.128;9.278;2023-05-10T11:13:45;100136.91;;;18.40;100.00
38718;BME280;24468;52.128;9.278;2023-05-10T11:16:21;100143.91;;;18.77;100.00
38718;BME280;24468;52.128;9.278;2023-05-10T11:19:03;100143.78;;;18.99;100.00
38718;BME280;24468;52.128;9.278;2023-05-10T11:21:33;100140.03;;;19.00;100.00
38718;BME280;24468;52.128;9.278;2023-05-10T11:24:01;100136.47;;;19.21;100.00
38718;BME280;24468;52.128;9.278;2023-05-10T11:26:33;100141.25;;;19.49;100.00
38718;BME280;24468;52.128;9.278;2023-05-10T11:28:59;100145.06;;;19.37;100.00
38718;BME280;24468;52.128;9.278;2023-05-10T11:31:26;100133.59;;;19.43;100.00
38718;BME280;24468;52.128;9.278;2023-05-10T11:33:55;100146.19;;;19.76;100.00
38718;BME280;24468;52.128;9.278;2023-05-10T11:36:24;100140.53;;;19.68;100.00
38718;BME280;24468;52.128;9.278;2023-05-10T11:38:51;100149.59;;;19.69;100.00
38718;BME280;24468;52.128;9.278;2023-05-10T11:41:18;100148.94;;;19.55;100.00
38718;BME280;24468;52.128;9.278;2023-05-10T11:43:46;100147.44;;;20.03;100.00
38718;BME280;24468;52.128;9.278;2023-05-10T11:46:14;100144.25;;;20.48;100.00
38718;BME280;24468;52.128;9.278;2023-05-10T11:48:41;100140.41;;;20.70;100.00
38718;BME280;24468;52.128;9.278;2023-05-10T11:51:08;100126.13;;;21.15;100.00
38718;BME280;24468;52.128;9.278;2023-05-10T11:53:33;100129.56;;;21.37;100.00
38718;BME280;24468;52.128;9.278;2023-05-10T11:56:04;100124.81;;;21.19;100.00
38718;BME280;24468;52.128;9.278;2023-05-10T11:58:31;100129.16;;;21.79;100.00
38718;BME280;24468;52.128;9.278;2023-05-10T12:00:59;100131.00;;;21.88;100.00
38718;BME280;24468;52.128;9.278;2023-05-10T12:03:25;100130.72;;;21.44;100.00
38718;BME280;24468;52.128;9.278;2023-05-10T12:05:50;100124.78;;;21.48;100.00
38718;BME280;24468;52.128;9.278;2023-05-10T12:08:22;100121.34;;;21.84;100.00
38718;BME280;24468;52.128;9.278;2023-05-10T12:10:48;100113.78;;;21.95;100.00
38718;BME280;24468;52.128;9.278;2023-05-10T12:13:14;100109.75;;;21.33;100.00
38718;BME280;24468;52.128;9.278;2023-05-10T12:15:41;100115.16;;;21.05;100.00
38718;BME280;24468;52.128;9.278;2023-05-10T12:18:12;100125.69;;;21.00;100.00
38718;BME280;24468;52.128;9.278;2023-05-10T12:20:39;100113.22;;;21.92;100.00
38718;BME280;24468;52.128;9.278;2023-05-10T12:23:05;100117.06;;;21.99;100.00
38718;BME280;24468;52.128;9.278;2023-05-10T12:25:34;100116.88;;;22.10;100.00
38718;BME280;24468;52.128;9.278;2023-05-10T12:28:04;100124.09;;;21.84;100.00
38718;BME280;24468;52.128;9.278;2023-05-10T12:30:33;100125.41;;;21.42;100.00
38718;BME280;24468;52.128;9.278;2023-05-10T12:33:02;100126.31;;;21.61;100.00
38718;BME280;24468;52.128;9.278;2023-05-10T12:35:32;100122.78;;;21.31;100.00
38718;BME280;24468;52.128;9.278;2023-05-10T12:37:58;100129.72;;;21.45;100.00
38718;BME280;24468;52.128;9.278;2023-05-10T12:40:24;100131.41;;;21.93;100.00
38718;BME280;24468;52.128;9.278;2023-05-10T12:42:49;100134.25;;;22.11;94.95
38718;BME280;24468;52.128;9.278;2023-05-10T12:45:17;100128.88;;;21.82;98.16
38718;BME280;24468;52.128;9.278;2023-05-10T12:47:43;100133.88;;;22.24;96.43
38718;BME280;24468;52.128;9.278;2023-05-10T12:50:09;100134.19;;;22.20;98.82
38718;BME280;24468;52.128;9.278;2023-05-10T12:52:35;100129.28;;;22.14;95.62
38718;BME280;24468;52.128;9.278;2023-05-10T12:55:01;100144.19;;;20.98;100.00
38718;BME280;24468;52.128;9.278;2023-05-10T12:57:30;100147.63;;;20.11;100.00
38718;BME280;24468;52.128;9.278;2023-05-10T12:59:55;100144.03;;;21.09;100.00
38718;BME280;24468;52.128;9.278;2023-05-10T13:02:21;100145.19;;;20.68;100.00
38718;BME280;24468;52.128;9.278;2023-05-10T13:04:48;100143.44;;;20.86;100.00
38718;BME280;24468;52.128;9.278;2023-05-10T13:07:14;100149.06;;;20.56;100.00
38718;BME280;24468;52.128;9.278;2023-05-10T13:09:39;100152.69;;;20.16;100.00
38718;BME280;24468;52.128;9.278;2023-05-10T13:12:05;100153.06;;;20.02;100.00
38718;BME280;24468;52.128;9.278;2023-05-10T13:14:31;100157.66;;;20.01;100.00
38718;BME280;24468;52.128;9.278;2023-05-10T13:16:56;100163.69;;;19.95;100.00
38718;BME280;24468;52.128;9.278;2023-05-10T13:19:22;100161.78;;;20.16;100.00
38718;BME280;24468;52.128;9.278;2023-05-10T13:21:47;100161.09;;;20.34;100.00
38718;BME280;24468;52.128;9.278;2023-05-10T13:24:13;100145.47;;;21.14;100.00